sensor_id;sensor_type;location;lat;lon;timestamp;P1;durP1;ratioP1;P2;durP2;ratioP2
43150;SDS011;28755;51.478;5.702;2023-05-19T00:00:55;12.27;;;8.20;;
43150;SDS011;28755;51.478;5.702;2023-05-19T00:03:21;14.75;;;8.07;;
43150;SDS011;28755;51.478;5.702;2023-05-19T00:05:48;14.50;;;8.23;;
43150;SDS011;28755;51.478;5.702;2023-05-19T00:08:17;15.60;;;8.17;;
43150;SDS011;28755;51.478;5.702;2023-05-19T00:10:43;15.02;;;8.75;;
43150;SDS011;28755;51.478;5.702;2023-05-19T00:13:09;16.40;;;8.88;;
43150;SDS011;28755;51.478;5.702;2023-05-19T00:15:35;18.08;;;9.23;;
43150;SDS011;28755;51.478;5.702;2023-05-19T00:18:01;15.60;;;9.00;;
43150;SDS011;28755;51.478;5.702;2023-05-19T00:20:26;18.73;;;9.07;;
43150;SDS011;28755;51.478;5.702;2023-05-19T00:22:52;17.92;;;8.98;;
43150;SDS011;28755;51.478;5.702;2023-05-19T00:25:17;13.00;;;8.70;;
43150;SDS011;28755;51.478;5.702;2023-05-19T00:27:43;17.38;;;8.32;;
43150;SDS011;28755;51.478;5.702;2023-05-19T00:30:08;13.50;;;8.50;;
43150;SDS011;28755;51.478;5.702;2023-05-19T00:32:34;13.43;;;8.40;;
43150;SDS011;28755;51.478;5.702;2023-05-19T00:35:00;14.68;;;8.07;;
43150;SDS011;28755;51.478;5.702;2023-05-19T00:37:25;13.02;;;7.78;;
43150;SDS011;28755;51.478;5.702;2023-05-19T00:39:51;18.00;;;8.00;;
43150;SDS011;28755;51.478;5.702;2023-05-19T00:42:17;14.52;;;7.70;;
43150;SDS011;28755;51.478;5.702;2023-05-19T00:44:44;16.10;;;7.30;;
43150;SDS011;28755;51.478;5.702;2023-05-19T00:47:09;13.27;;;6.78;;
43150;SDS011;28755;51.478;5.702;2023-05-19T00:49:35;13.18;;;6.90;;
43150;SDS011;28755;51.478;5.702;2023-05-19T00:52:00;14.65;;;7.65;;
43150;SDS011;28755;51.478;5.702;2023-05-19T00:54:27;16.05;;;7.22;;
43150;SDS011;28755;51.478;5.702;2023-05-19T00:56:53;17.13;;;6.80;;
43150;SDS011;28755;51.478;5.702;2023-05-19T00:59:19;16.33;;;6.93;;
43150;SDS011;28755;51.478;5.702;2023-05-19T01:01:45;13.65;;;7.15;;
43150;SDS011;28755;51.478;5.702;2023-05-19T01:04:14;14.13;;;6.65;;
43150;SDS011;28755;51.478;5.702;2023-05-19T01:06:42;16.17;;;6.60;;
43150;SDS011;28755;51.478;5.702;2023-05-19T01:09:08;12.63;;;6.25;;
43150;SDS011;28755;51.478;5.702;2023-05-19T01:11:34;18.38;;;6.90;;
43150;SDS011;28755;51.478;5.702;2023-05-19T01:13:59;14.13;;;6.50;;
43150;SDS011;28755;51.478;5.702;2023-05-19T01:16:30;14.77;;;6.68;;
43150;SDS011;28755;51.478;5.702;2023-05-19T01:22:31;10.00;;;6.45;;
43150;SDS011;28755;51.478;5.702;2023-05-19T01:28:29;11.35;;;6.47;;
43150;SDS011;28755;51.478;5.702;2023-05-19T01:31:06;11.20;;;7.03;;
43150;SDS011;28755;51.478;5.702;2023-05-19T01:33:33;11.90;;;6.85;;
43150;SDS011;28755;51.478;5.702;2023-05-19T01:36:02;11.60;;;6.65;;
43150;SDS011;28755;51.478;5.702;2023-05-19T01:38:29;16.17;;;7.25;;
43150;SDS011;28755;51.478;5.702;2023-05-19T01:40:56;15.68;;;7.15;;
43150;SDS011;28755;51.478;5.702;2023-05-19T01:43:23;13.77;;;7.15;;
43150;SDS011;28755;51.478;5.702;2023-05-19T01:45:50;18.65;;;6.63;;
43150;SDS011;28755;51.478;5.702;2023-05-19T01:48:16;20.40;;;8.18;;
43150;SDS011;28755;51.478;5.702;2023-05-19T01:50:43;11.52;;;7.70;;
43150;SDS011;28755;51.478;5.702;2023-05-19T01:53:09;15.68;;;7.88;;
43150;SDS011;28755;51.478;5.702;2023-05-19T01:55:35;11.50;;;7.80;;
43150;SDS011;28755;51.478;5.702;2023-05-19T01:58:17;13.70;;;8.48;;
43150;SDS011;28755;51.478;5.702;2023-05-19T02:01:50;15.75;;;8.73;;
43150;SDS011;28755;51.478;5.702;2023-05-19T02:09:36;15.98;;;8.00;;
43150;SDS011;28755;51.478;5.702;2023-05-19T02:12:15;14.50;;;8.35;;
43150;SDS011;28755;51.478;5.702;2023-05-19T02:15:03;16.38;;;8.70;;
43150;SDS011;28755;51.478;5.702;2023-05-19T02:17:40;11.90;;;7.93;;
43150;SDS011;28755;51.478;5.702;2023-05-19T02:20:11;14.63;;;8.75;;
43150;SDS011;28755;51.478;5.702;2023-05-19T02:22:37;14.07;;;8.88;;
43150;SDS011;28755;51.478;5.702;2023-05-19T02:25:03;18.33;;;8.05;;
43150;SDS011;28755;51.478;5.702;2023-05-19T02:27:29;21.20;;;9.35;;
43150;SDS011;28755;51.478;5.702;2023-05-19T02:29:54;24.45;;;9.38;;
43150;SDS011;28755;51.478;5.702;2023-05-19T02:32:20;16.27;;;9.55;;
43150;SDS011;28755;51.478;5.702;2023-05-19T02:34:46;18.98;;;9.30;;
43150;SDS011;28755;51.478;5.702;2023-05-19T02:37:12;17.48;;;9.20;;
43150;SDS011;28755;51.478;5.702;2023-05-19T02:39:41;13.90;;;9.07;;
43150;SDS011;28755;51.478;5.702;2023-05-19T02:42:07;23.05;;;9.35;;
43150;SDS011;28755;51.478;5.702;2023-05-19T02:44:33;16.27;;;9.60;;
43150;SDS011;28755;51.478;5.702;2023-05-19T02:46:59;22.67;;;10.05;;
43150;SDS011;28755;51.478;5.702;2023-05-19T02:49:24;19.60;;;9.52;;
43150;SDS011;28755;51.478;5.702;2023-05-19T02:51:50;17.10;;;8.85;;
43150;SDS011;28755;51.478;5.702;2023-05-19T02:54:15;16.40;;;9.02;;
43150;SDS011;28755;51.478;5.702;2023-05-19T02:56:41;14.52;;;9.15;;
43150;SDS011;28755;51.478;5.702;2023-05-19T02:59:07;22.95;;;9.25;;
43150;SDS011;28755;51.478;5.702;2023-05-19T03:01:32;16.85;;;9.15;;
43150;SDS011;28755;51.478;5.702;2023-05-19T03:03:58;16.25;;;9.02;;
43150;SDS011;28755;51.478;5.702;2023-05-19T03:06:23;13.95;;;8.93;;
43150;SDS011;28755;51.478;5.702;2023-05-19T03:08:49;18.60;;;8.60;;
43150;SDS011;28755;51.478;5.702;2023-05-19T03:11:15;15.20;;;9.13;;
43150;SDS011;28755;51.478;5.702;2023-05-19T03:13:41;19.10;;;8.85;;
43150;SDS011;28755;51.478;5.702;2023-05-19T03:16:06;15.30;;;8.88;;
43150;SDS011;28755;51.478;5.702;2023-05-19T03:18:32;13.82;;;9.25;;
43150;SDS011;28755;51.478;5.702;2023-05-19T03:20:58;13.60;;;8.57;;
43150;SDS011;28755;51.478;5.702;2023-05-19T03:23:24;19.50;;;9.82;;
43150;SDS011;28755;51.478;5.702;2023-05-19T03:25:50;20.63;;;9.38;;
43150;SDS011;28755;51.478;5.702;2023-05-19T03:28:18;17.65;;;9.38;;
43150;SDS011;28755;51.478;5.702;2023-05-19T03:30:43;14.15;;;9.15;;
43150;SDS011;28755;51.478;5.702;2023-05-19T03:33:09;18.83;;;9.70;;
43150;SDS011;28755;51.478;5.702;2023-05-19T03:35:35;15.52;;;9.05;;
43150;SDS011;28755;51.478;5.702;2023-05-19T03:38:00;17.25;;;9.45;;
43150;SDS011;28755;51.478;5.702;2023-05-19T03:40:26;20.85;;;9.23;;
43150;SDS011;28755;51.478;5.702;2023-05-19T03:42:51;16.50;;;9.18;;
43150;SDS011;28755;51.478;5.702;2023-05-19T03:45:18;14.38;;;9.05;;
43150;SDS011;28755;51.478;5.702;2023-05-19T03:47:44;19.00;;;10.00;;
43150;SDS011;28755;51.478;5.702;2023-05-19T03:50:11;16.40;;;9.25;;
43150;SDS011;28755;51.478;5.702;2023-05-19T03:52:38;17.33;;;9.55;;
43150;SDS011;28755;51.478;5.702;2023-05-19T03:55:04;19.50;;;9.70;;
43150;SDS011;28755;51.478;5.702;2023-05-19T03:57:30;16.33;;;9.35;;
43150;SDS011;28755;51.478;5.702;2023-05-19T03:59:57;17.05;;;8.90;;
43150;SDS011;28755;51.478;5.702;2023-05-19T04:02:23;17.45;;;9.27;;
43150;SDS011;28755;51.478;5.702;2023-05-19T04:04:49;14.75;;;9.02;;
43150;SDS011;28755;51.478;5.702;2023-05-19T04:07:15;17.25;;;10.07;;
43150;SDS011;28755;51.478;5.702;2023-05-19T04:09:41;17.35;;;9.38;;
43150;SDS011;28755;51.478;5.702;2023-05-19T04:12:06;15.82;;;9.70;;
43150;SDS011;28755;51.478;5.702;2023-05-19T04:14:32;20.10;;;9.98;;
43150;SDS011;28755;51.478;5.702;2023-05-19T04:16:58;18.27;;;9.43;;
43150;SDS011;28755;51.478;5.702;2023-05-19T04:19:23;17.75;;;9.18;;
43150;SDS011;28755;51.478;5.702;2023-05-19T04:21:49;20.02;;;9.30;;
43150;SDS011;28755;51.478;5.702;2023-05-19T04:24:15;20.35;;;9.80;;
43150;SDS011;28755;51.478;5.702;2023-05-19T04:26:40;16.65;;;9.70;;
43150;SDS011;28755;51.478;5.702;2023-05-19T04:29:09;14.90;;;9.80;;
43150;SDS011;28755;51.478;5.702;2023-05-19T04:31:37;16.75;;;8.82;;
43150;SDS011;28755;51.478;5.702;2023-05-19T04:34:04;18.92;;;10.32;;
43150;SDS011;28755;51.478;5.702;2023-05-19T04:36:31;18.42;;;9.43;;
43150;SDS011;28755;51.478;5.702;2023-05-19T04:38:58;19.63;;;9.55;;
43150;SDS011;28755;51.478;5.702;2023-05-19T04:41:30;15.13;;;9.45;;
43150;SDS011;28755;51.478;5.702;2023-05-19T04:43:57;16.63;;;9.52;;
43150;SDS011;28755;51.478;5.702;2023-05-19T04:46:23;16.80;;;9.25;;
43150;SDS011;28755;51.478;5.702;2023-05-19T04:48:50;19.83;;;9.05;;
43150;SDS011;28755;51.478;5.702;2023-05-19T04:51:17;19.98;;;9.77;;
43150;SDS011;28755;51.478;5.702;2023-05-19T04:53:45;18.73;;;9.63;;
43150;SDS011;28755;51.478;5.702;2023-05-19T04:56:11;16.88;;;9.27;;
43150;SDS011;28755;51.478;5.702;2023-05-19T04:58:39;18.83;;;9.48;;
43150;SDS011;28755;51.478;5.702;2023-05-19T05:01:06;16.05;;;9.40;;
43150;SDS011;28755;51.478;5.702;2023-05-19T05:03:33;19.60;;;9.07;;
43150;SDS011;28755;51.478;5.702;2023-05-19T05:05:59;18.88;;;9.15;;
43150;SDS011;28755;51.478;5.702;2023-05-19T05:08:24;19.15;;;8.85;;
43150;SDS011;28755;51.478;5.702;2023-05-19T05:10:51;16.90;;;7.85;;
43150;SDS011;28755;51.478;5.702;2023-05-19T05:13:19;15.60;;;9.25;;
43150;SDS011;28755;51.478;5.702;2023-05-19T05:15:46;16.10;;;8.40;;
43150;SDS011;28755;51.478;5.702;2023-05-19T05:18:13;15.88;;;8.52;;
43150;SDS011;28755;51.478;5.702;2023-05-19T05:20:40;15.70;;;8.25;;
43150;SDS011;28755;51.478;5.702;2023-05-19T05:23:10;16.33;;;9.25;;
43150;SDS011;28755;51.478;5.702;2023-05-19T05:25:39;14.30;;;8.70;;
43150;SDS011;28755;51.478;5.702;2023-05-19T05:28:05;15.90;;;8.48;;
43150;SDS011;28755;51.478;5.702;2023-05-19T05:30:32;15.95;;;8.20;;
43150;SDS011;28755;51.478;5.702;2023-05-19T05:32:58;13.35;;;8.63;;
43150;SDS011;28755;51.478;5.702;2023-05-19T05:35:24;17.08;;;8.55;;
43150;SDS011;28755;51.478;5.702;2023-05-19T05:37:49;16.58;;;8.27;;
43150;SDS011;28755;51.478;5.702;2023-05-19T05:40:15;18.60;;;8.95;;
43150;SDS011;28755;51.478;5.702;2023-05-19T05:42:41;18.13;;;8.40;;
43150;SDS011;28755;51.478;5.702;2023-05-19T05:45:07;16.13;;;7.90;;
43150;SDS011;28755;51.478;5.702;2023-05-19T05:47:33;16.20;;;8.43;;
43150;SDS011;28755;51.478;5.702;2023-05-19T05:50:02;17.88;;;7.60;;
43150;SDS011;28755;51.478;5.702;2023-05-19T05:52:31;15.55;;;7.55;;
43150;SDS011;28755;51.478;5.702;2023-05-19T05:54:57;11.68;;;6.80;;
43150;SDS011;28755;51.478;5.702;2023-05-19T05:57:25;16.30;;;7.43;;
43150;SDS011;28755;51.478;5.702;2023-05-19T05:59:50;15.52;;;7.28;;
43150;SDS011;28755;51.478;5.702;2023-05-19T06:02:16;13.77;;;7.60;;
43150;SDS011;28755;51.478;5.702;2023-05-19T06:04:42;18.65;;;7.05;;
43150;SDS011;28755;51.478;5.702;2023-05-19T06:07:08;15.10;;;7.03;;
43150;SDS011;28755;51.478;5.702;2023-05-19T06:09:33;23.17;;;7.70;;
43150;SDS011;28755;51.478;5.702;2023-05-19T06:11:59;15.70;;;7.70;;
43150;SDS011;28755;51.478;5.702;2023-05-19T06:14:25;16.10;;;7.40;;
43150;SDS011;28755;51.478;5.702;2023-05-19T06:16:50;16.98;;;7.78;;
43150;SDS011;28755;51.478;5.702;2023-05-19T06:19:17;15.15;;;7.03;;
43150;SDS011;28755;51.478;5.702;2023-05-19T06:21:43;14.18;;;6.85;;
43150;SDS011;28755;51.478;5.702;2023-05-19T06:24:09;14.50;;;7.13;;
43150;SDS011;28755;51.478;5.702;2023-05-19T06:26:35;19.00;;;7.65;;
43150;SDS011;28755;51.478;5.702;2023-05-19T06:29:00;16.52;;;9.65;;
43150;SDS011;28755;51.478;5.702;2023-05-19T06:31:27;17.85;;;9.15;;
43150;SDS011;28755;51.478;5.702;2023-05-19T06:33:52;16.98;;;7.22;;
43150;SDS011;28755;51.478;5.702;2023-05-19T06:36:18;94.80;;;12.57;;
43150;SDS011;28755;51.478;5.702;2023-05-19T06:38:44;11.32;;;6.60;;
43150;SDS011;28755;51.478;5.702;2023-05-19T06:41:09;11.82;;;6.07;;
43150;SDS011;28755;51.478;5.702;2023-05-19T06:43:35;8.82;;;6.15;;
43150;SDS011;28755;51.478;5.702;2023-05-19T06:46:00;13.00;;;5.80;;
43150;SDS011;28755;51.478;5.702;2023-05-19T06:48:26;10.20;;;6.18;;
43150;SDS011;28755;51.478;5.702;2023-05-19T06:50:52;13.88;;;6.13;;
43150;SDS011;28755;51.478;5.702;2023-05-19T06:53:18;14.73;;;6.32;;
43150;SDS011;28755;51.478;5.702;2023-05-19T06:55:45;12.90;;;6.80;;
43150;SDS011;28755;51.478;5.702;2023-05-19T06:58:10;14.82;;;5.72;;
43150;SDS011;28755;51.478;5.702;2023-05-19T07:00:36;11.35;;;5.70;;
43150;SDS011;28755;51.478;5.702;2023-05-19T07:03:01;12.20;;;6.10;;
43150;SDS011;28755;51.478;5.702;2023-05-19T07:05:27;13.13;;;6.68;;
43150;SDS011;28755;51.478;5.702;2023-05-19T07:07:53;10.80;;;5.72;;
43150;SDS011;28755;51.478;5.702;2023-05-19T07:10:19;8.75;;;5.30;;
43150;SDS011;28755;51.478;5.702;2023-05-19T07:12:45;12.00;;;5.75;;
43150;SDS011;28755;51.478;5.702;2023-05-19T07:15:11;11.07;;;5.40;;
43150;SDS011;28755;51.478;5.702;2023-05-19T07:17:37;10.02;;;5.78;;
43150;SDS011;28755;51.478;5.702;2023-05-19T07:20:02;9.93;;;5.40;;
43150;SDS011;28755;51.478;5.702;2023-05-19T07:22:31;14.32;;;5.43;;
43150;SDS011;28755;51.478;5.702;2023-05-19T07:24:59;16.55;;;5.75;;
43150;SDS011;28755;51.478;5.702;2023-05-19T07:27:24;10.50;;;5.22;;
43150;SDS011;28755;51.478;5.702;2023-05-19T07:29:50;15.38;;;4.60;;
43150;SDS011;28755;51.478;5.702;2023-05-19T07:32:16;11.23;;;5.25;;
43150;SDS011;28755;51.478;5.702;2023-05-19T07:34:42;13.68;;;5.18;;
43150;SDS011;28755;51.478;5.702;2023-05-19T07:37:07;13.95;;;4.28;;
43150;SDS011;28755;51.478;5.702;2023-05-19T07:39:33;11.05;;;4.63;;
43150;SDS011;28755;51.478;5.702;2023-05-19T07:41:59;10.75;;;4.97;;
43150;SDS011;28755;51.478;5.702;2023-05-19T07:44:26;9.90;;;4.28;;
43150;SDS011;28755;51.478;5.702;2023-05-19T07:46:54;15.77;;;4.25;;
43150;SDS011;28755;51.478;5.702;2023-05-19T07:49:20;9.40;;;4.65;;
43150;SDS011;28755;51.478;5.702;2023-05-19T07:51:46;13.43;;;4.72;;
43150;SDS011;28755;51.478;5.702;2023-05-19T07:54:11;12.88;;;4.57;;
43150;SDS011;28755;51.478;5.702;2023-05-19T07:56:37;8.80;;;3.90;;
43150;SDS011;28755;51.478;5.702;2023-05-19T07:59:03;12.98;;;4.75;;
43150;SDS011;28755;51.478;5.702;2023-05-19T08:01:29;10.25;;;4.30;;
43150;SDS011;28755;51.478;5.702;2023-05-19T08:03:55;10.80;;;4.15;;
43150;SDS011;28755;51.478;5.702;2023-05-19T08:06:21;11.40;;;4.75;;
43150;SDS011;28755;51.478;5.702;2023-05-19T08:08:47;11.90;;;4.68;;
43150;SDS011;28755;51.478;5.702;2023-05-19T08:11:12;9.32;;;4.22;;
43150;SDS011;28755;51.478;5.702;2023-05-19T08:13:38;9.90;;;3.80;;
43150;SDS011;28755;51.478;5.702;2023-05-19T08:16:04;11.07;;;4.40;;
43150;SDS011;28755;51.478;5.702;2023-05-19T08:18:30;12.50;;;3.50;;
43150;SDS011;28755;51.478;5.702;2023-05-19T08:20:56;8.70;;;3.53;;
43150;SDS011;28755;51.478;5.702;2023-05-19T08:23:21;9.05;;;3.40;;
43150;SDS011;28755;51.478;5.702;2023-05-19T08:25:47;12.88;;;3.97;;
43150;SDS011;28755;51.478;5.702;2023-05-19T08:28:12;10.60;;;4.10;;
43150;SDS011;28755;51.478;5.702;2023-05-19T08:30:38;9.43;;;3.40;;
43150;SDS011;28755;51.478;5.702;2023-05-19T08:33:04;9.45;;;2.88;;
43150;SDS011;28755;51.478;5.702;2023-05-19T08:35:30;10.13;;;3.20;;
43150;SDS011;28755;51.478;5.702;2023-05-19T08:37:55;10.25;;;3.45;;
43150;SDS011;28755;51.478;5.702;2023-05-19T08:40:21;12.50;;;3.22;;
43150;SDS011;28755;51.478;5.702;2023-05-19T08:42:47;9.45;;;2.72;;
43150;SDS011;28755;51.478;5.702;2023-05-19T08:45:13;9.88;;;2.90;;
43150;SDS011;28755;51.478;5.702;2023-05-19T08:47:40;9.15;;;2.80;;
43150;SDS011;28755;51.478;5.702;2023-05-19T08:50:09;18.38;;;5.05;;
43150;SDS011;28755;51.478;5.702;2023-05-19T08:55:22;10.07;;;2.65;;
43150;SDS011;28755;51.478;5.702;2023-05-19T08:58:00;8.90;;;2.03;;
43150;SDS011;28755;51.478;5.702;2023-05-19T09:00:27;9.07;;;2.97;;
43150;SDS011;28755;51.478;5.702;2023-05-19T09:02:54;9.32;;;2.22;;
43150;SDS011;28755;51.478;5.702;2023-05-19T09:05:21;10.60;;;2.10;;
43150;SDS011;28755;51.478;5.702;2023-05-19T09:07:47;6.45;;;2.25;;
43150;SDS011;28755;51.478;5.702;2023-05-19T09:10:13;10.27;;;2.00;;
43150;SDS011;28755;51.478;5.702;2023-05-19T09:12:44;12.02;;;2.33;;
43150;SDS011;28755;51.478;5.702;2023-05-19T09:15:17;8.10;;;2.15;;
43150;SDS011;28755;51.478;5.702;2023-05-19T09:17:44;7.33;;;1.63;;
43150;SDS011;28755;51.478;5.702;2023-05-19T09:20:11;8.45;;;1.90;;
43150;SDS011;28755;51.478;5.702;2023-05-19T09:22:44;8.98;;;2.10;;
43150;SDS011;28755;51.478;5.702;2023-05-19T09:25:17;7.40;;;1.83;;
43150;SDS011;28755;51.478;5.702;2023-05-19T09:27:45;9.00;;;2.38;;
43150;SDS011;28755;51.478;5.702;2023-05-19T09:30:12;9.15;;;1.98;;
43150;SDS011;28755;51.478;5.702;2023-05-19T09:32:39;6.35;;;1.73;;
43150;SDS011;28755;51.478;5.702;2023-05-19T09:35:05;6.65;;;1.35;;
43150;SDS011;28755;51.478;5.702;2023-05-19T09:37:31;6.82;;;1.90;;
43150;SDS011;28755;51.478;5.702;2023-05-19T09:39:57;5.88;;;1.70;;
43150;SDS011;28755;51.478;5.702;2023-05-19T09:42:24;8.63;;;2.00;;
43150;SDS011;28755;51.478;5.702;2023-05-19T09:45:00;9.52;;;1.77;;
43150;SDS011;28755;51.478;5.702;2023-05-19T09:47:27;5.88;;;1.60;;
43150;SDS011;28755;51.478;5.702;2023-05-19T09:50:09;6.53;;;1.67;;
43150;SDS011;28755;51.478;5.702;2023-05-19T09:52:39;9.27;;;2.55;;
43150;SDS011;28755;51.478;5.702;2023-05-19T09:55:09;9.10;;;1.67;;
43150;SDS011;28755;51.478;5.702;2023-05-19T09:57:36;7.80;;;2.42;;
43150;SDS011;28755;51.478;5.702;2023-05-19T10:00:03;8.20;;;1.95;;
43150;SDS011;28755;51.478;5.702;2023-05-19T10:02:41;8.75;;;1.90;;
43150;SDS011;28755;51.478;5.702;2023-05-19T10:05:15;9.20;;;1.90;;
43150;SDS011;28755;51.478;5.702;2023-05-19T10:07:44;7.07;;;2.03;;
43150;SDS011;28755;51.478;5.702;2023-05-19T10:10:16;10.02;;;2.60;;
43150;SDS011;28755;51.478;5.702;2023-05-19T10:12:44;6.22;;;1.70;;
43150;SDS011;28755;51.478;5.702;2023-05-19T10:15:11;6.35;;;1.77;;
43150;SDS011;28755;51.478;5.702;2023-05-19T10:17:38;8.48;;;1.88;;
43150;SDS011;28755;51.478;5.702;2023-05-19T10:20:08;6.13;;;1.98;;
43150;SDS011;28755;51.478;5.702;2023-05-19T10:22:36;11.05;;;2.17;;
43150;SDS011;28755;51.478;5.702;2023-05-19T10:25:03;7.53;;;2.00;;
43150;SDS011;28755;51.478;5.702;2023-05-19T10:27:30;8.93;;;2.03;;
43150;SDS011;28755;51.478;5.702;2023-05-19T10:29:59;10.30;;;2.45;;
43150;SDS011;28755;51.478;5.702;2023-05-19T10:32:29;8.13;;;2.00;;
43150;SDS011;28755;51.478;5.702;2023-05-19T10:35:18;7.03;;;2.17;;
43150;SDS011;28755;51.478;5.702;2023-05-19T10:38:11;7.90;;;1.83;;
43150;SDS011;28755;51.478;5.702;2023-05-19T10:40:54;7.18;;;2.10;;
43150;SDS011;28755;51.478;5.702;2023-05-19T10:45:59;6.53;;;2.17;;
43150;SDS011;28755;51.478;5.702;2023-05-19T10:48:25;7.80;;;2.22;;
43150;SDS011;28755;51.478;5.702;2023-05-19T10:50:54;7.70;;;1.77;;
43150;SDS011;28755;51.478;5.702;2023-05-19T10:53:20;8.32;;;1.98;;
43150;SDS011;28755;51.478;5.702;2023-05-19T10:55:50;7.85;;;2.20;;
43150;SDS011;28755;51.478;5.702;2023-05-19T11:01:07;10.85;;;2.42;;
43150;SDS011;28755;51.478;5.702;2023-05-19T11:03:49;5.57;;;2.05;;
43150;SDS011;28755;51.478;5.702;2023-05-19T11:08:53;11.07;;;2.33;;
43150;SDS011;28755;51.478;5.702;2023-05-19T11:11:22;7.55;;;2.42;;
43150;SDS011;28755;51.478;5.702;2023-05-19T11:13:52;9.43;;;2.30;;
43150;SDS011;28755;51.478;5.702;2023-05-19T11:16:32;8.23;;;1.85;;
43150;SDS011;28755;51.478;5.702;2023-05-19T11:18:59;5.95;;;1.90;;
43150;SDS011;28755;51.478;5.702;2023-05-19T11:27:16;14.45;;;2.20;;
43150;SDS011;28755;51.478;5.702;2023-05-19T11:30:01;9.13;;;2.75;;
43150;SDS011;28755;51.478;5.702;2023-05-19T11:32:31;7.57;;;2.10;;
43150;SDS011;28755;51.478;5.702;2023-05-19T11:34:57;8.25;;;2.05;;
43150;SDS011;28755;51.478;5.702;2023-05-19T11:37:24;5.28;;;1.55;;
43150;SDS011;28755;51.478;5.702;2023-05-19T11:39:50;6.05;;;1.90;;
43150;SDS011;28755;51.478;5.702;2023-05-19T11:42:16;6.70;;;1.90;;
43150;SDS011;28755;51.478;5.702;2023-05-19T11:44:43;8.77;;;2.63;;
43150;SDS011;28755;51.478;5.702;2023-05-19T11:47:10;6.80;;;2.00;;
43150;SDS011;28755;51.478;5.702;2023-05-19T11:49:49;6.85;;;1.88;;
43150;SDS011;28755;51.478;5.702;2023-05-19T11:52:21;6.20;;;2.00;;
43150;SDS011;28755;51.478;5.702;2023-05-19T11:54:48;8.60;;;2.20;;
43150;SDS011;28755;51.478;5.702;2023-05-19T11:57:14;7.13;;;2.25;;
43150;SDS011;28755;51.478;5.702;2023-05-19T11:59:39;5.68;;;2.00;;
43150;SDS011;28755;51.478;5.702;2023-05-19T12:02:16;10.27;;;1.90;;
43150;SDS011;28755;51.478;5.702;2023-05-19T12:04:42;7.00;;;1.60;;
43150;SDS011;28755;51.478;5.702;2023-05-19T12:07:11;7.72;;;2.28;;
43150;SDS011;28755;51.478;5.702;2023-05-19T12:09:38;6.47;;;2.05;;
43150;SDS011;28755;51.478;5.702;2023-05-19T12:12:04;5.95;;;1.60;;
43150;SDS011;28755;51.478;5.702;2023-05-19T12:14:29;9.02;;;2.17;;
43150;SDS011;28755;51.478;5.702;2023-05-19T12:16:58;10.60;;;2.28;;
43150;SDS011;28755;51.478;5.702;2023-05-19T12:19:23;9.98;;;2.00;;
43150;SDS011;28755;51.478;5.702;2023-05-19T12:21:49;8.05;;;2.50;;
43150;SDS011;28755;51.478;5.702;2023-05-19T12:24:16;6.78;;;2.10;;
43150;SDS011;28755;51.478;5.702;2023-05-19T12:26:43;10.25;;;2.20;;
43150;SDS011;28755;51.478;5.702;2023-05-19T12:29:09;11.35;;;2.30;;
43150;SDS011;28755;51.478;5.702;2023-05-19T12:31:36;9.65;;;2.30;;
43150;SDS011;28755;51.478;5.702;2023-05-19T12:34:02;7.00;;;2.13;;
43150;SDS011;28755;51.478;5.702;2023-05-19T12:36:28;7.47;;;2.22;;
43150;SDS011;28755;51.478;5.702;2023-05-19T12:38:55;7.68;;;2.17;;
43150;SDS011;28755;51.478;5.702;2023-05-19T12:41:22;9.38;;;1.90;;
43150;SDS011;28755;51.478;5.702;2023-05-19T12:43:49;10.80;;;2.15;;
43150;SDS011;28755;51.478;5.702;2023-05-19T12:46:17;10.75;;;2.47;;
43150;SDS011;28755;51.478;5.702;2023-05-19T12:48:43;5.30;;;1.95;;
43150;SDS011;28755;51.478;5.702;2023-05-19T12:51:10;6.05;;;2.30;;
43150;SDS011;28755;51.478;5.702;2023-05-19T12:53:41;9.25;;;1.95;;
43150;SDS011;28755;51.478;5.702;2023-05-19T12:56:13;7.72;;;2.13;;
43150;SDS011;28755;51.478;5.702;2023-05-19T12:58:40;5.60;;;2.10;;
43150;SDS011;28755;51.478;5.702;2023-05-19T13:01:06;7.82;;;2.00;;
43150;SDS011;28755;51.478;5.702;2023-05-19T13:03:43;9.27;;;2.40;;
43150;SDS011;28755;51.478;5.702;2023-05-19T13:06:09;6.72;;;2.28;;
43150;SDS011;28755;51.478;5.702;2023-05-19T13:08:39;6.80;;;1.95;;
43150;SDS011;28755;51.478;5.702;2023-05-19T13:11:05;9.35;;;2.55;;
43150;SDS011;28755;51.478;5.702;2023-05-19T13:13:31;5.45;;;1.88;;
43150;SDS011;28755;51.478;5.702;2023-05-19T13:15:57;72.93;;;6.50;;
43150;SDS011;28755;51.478;5.702;2023-05-19T13:18:23;9.77;;;2.80;;
43150;SDS011;28755;51.478;5.702;2023-05-19T13:20:49;7.68;;;2.17;;
43150;SDS011;28755;51.478;5.702;2023-05-19T13:23:16;9.73;;;2.30;;
43150;SDS011;28755;51.478;5.702;2023-05-19T13:25:43;7.05;;;2.35;;
43150;SDS011;28755;51.478;5.702;2023-05-19T13:28:08;5.70;;;2.08;;
43150;SDS011;28755;51.478;5.702;2023-05-19T13:30:35;7.18;;;1.95;;
43150;SDS011;28755;51.478;5.702;2023-05-19T13:33:02;9.05;;;2.20;;
43150;SDS011;28755;51.478;5.702;2023-05-19T13:35:28;9.45;;;2.20;;
43150;SDS011;28755;51.478;5.702;2023-05-19T13:38:00;9.70;;;2.42;;
43150;SDS011;28755;51.478;5.702;2023-05-19T13:40:28;7.53;;;1.88;;
43150;SDS011;28755;51.478;5.702;2023-05-19T13:42:56;8.88;;;1.92;;
43150;SDS011;28755;51.478;5.702;2023-05-19T13:45:22;10.35;;;2.67;;
43150;SDS011;28755;51.478;5.702;2023-05-19T13:47:48;7.45;;;2.08;;
43150;SDS011;28755;51.478;5.702;2023-05-19T13:50:13;9.15;;;2.40;;
43150;SDS011;28755;51.478;5.702;2023-05-19T13:52:39;7.95;;;2.15;;
43150;SDS011;28755;51.478;5.702;2023-05-19T13:55:05;8.02;;;2.10;;
43150;SDS011;28755;51.478;5.702;2023-05-19T13:57:31;11.43;;;2.40;;
43150;SDS011;28755;51.478;5.702;2023-05-19T13:59:57;8.35;;;1.88;;
43150;SDS011;28755;51.478;5.702;2023-05-19T14:02:24;7.05;;;2.17;;
43150;SDS011;28755;51.478;5.702;2023-05-19T14:04:50;6.60;;;1.98;;
43150;SDS011;28755;51.478;5.702;2023-05-19T14:07:16;6.68;;;1.95;;
43150;SDS011;28755;51.478;5.702;2023-05-19T14:09:41;6.80;;;2.10;;
43150;SDS011;28755;51.478;5.702;2023-05-19T14:12:07;8.40;;;2.20;;
43150;SDS011;28755;51.478;5.702;2023-05-19T14:14:36;9.60;;;2.08;;
43150;SDS011;28755;51.478;5.702;2023-05-19T14:17:02;8.32;;;2.40;;
43150;SDS011;28755;51.478;5.702;2023-05-19T14:19:28;7.68;;;1.85;;
43150;SDS011;28755;51.478;5.702;2023-05-19T14:21:54;8.38;;;2.03;;
43150;SDS011;28755;51.478;5.702;2023-05-19T14:24:21;7.22;;;2.30;;
43150;SDS011;28755;51.478;5.702;2023-05-19T14:26:47;7.03;;;2.17;;
43150;SDS011;28755;51.478;5.702;2023-05-19T14:29:13;9.05;;;2.03;;
43150;SDS011;28755;51.478;5.702;2023-05-19T14:31:39;7.50;;;2.25;;
43150;SDS011;28755;51.478;5.702;2023-05-19T14:34:04;9.98;;;1.95;;
43150;SDS011;28755;51.478;5.702;2023-05-19T14:36:30;6.25;;;2.22;;
43150;SDS011;28755;51.478;5.702;2023-05-19T14:38:57;6.55;;;1.98;;
43150;SDS011;28755;51.478;5.702;2023-05-19T14:41:22;6.80;;;1.92;;
43150;SDS011;28755;51.478;5.702;2023-05-19T14:43:48;8.88;;;2.40;;
43150;SDS011;28755;51.478;5.702;2023-05-19T14:46:14;6.65;;;2.30;;
43150;SDS011;28755;51.478;5.702;2023-05-19T14:48:39;10.55;;;2.60;;
43150;SDS011;28755;51.478;5.702;2023-05-19T14:51:05;7.03;;;2.63;;
43150;SDS011;28755;51.478;5.702;2023-05-19T14:53:31;9.90;;;2.40;;
43150;SDS011;28755;51.478;5.702;2023-05-19T14:55:56;6.47;;;2.08;;
43150;SDS011;28755;51.478;5.702;2023-05-19T14:58:22;14.45;;;2.40;;
43150;SDS011;28755;51.478;5.702;2023-05-19T15:00:47;6.32;;;2.17;;
43150;SDS011;28755;51.478;5.702;2023-05-19T15:03:13;7.30;;;2.30;;
43150;SDS011;28755;51.478;5.702;2023-05-19T15:05:38;8.07;;;2.22;;
43150;SDS011;28755;51.478;5.702;2023-05-19T15:08:04;10.18;;;2.58;;